Airfield :
LOGIN :

Register | Disclaimer

   EN    FR    IT 

 










Legend :    VFR   Marginal VFR   IFR   Intensive IFR   Very Intensive IFR
Visi :
Ceiling :
>= 8 km
>= 3000ft
5 to 8 km
1000 to 3000 ft
1500m to 5 km
500 to 1000 ft
800 to 1500m
200 to 500 ft
< 800m
< 200 ft
Symbols :   Thunderstorms  Fog  Heavy snow  Heavy precipitations  Wind > 20 kt
SIGMETs :     Misc.  Thunderstorms  Icing  Turbulence  Mountain Waves  Volcanic Ashes






- Airport Elevation : 364 ft
- IATA code : FRA


EDDF - Frankfurt Int.

CURRENT METAR :
  • 021250Z VRB02KT 9999 FEW012 OVC016 03/M01 Q1016 R07L/29//95 R07C/29//95 R07R/29//95 R18/29//95 NOSIG

EXPIRED METARs :
  • 021220Z 36004KT 330V030 9999 FEW012 OVC017 02/M00 Q1016 R07L/29//95 R07C/29//95 R07R/29//95 R18/29//95 NOSIG
  • 021150Z 36005KT 340V040 9999 FEW012 BKN018 02/M00 Q1017 R07L/29//95 R07C/29//95 R07R/29//95 R18/29//95 NOSIG
  • 021120Z 36005KT 9999 FEW012 BKN018 02/M00 Q1017 R07L/29//95 R07C/29//95 R07R/29//95 R18/29//95 NOSIG
  • 021050Z 36005KT 330V030 9999 FEW012 BKN019 02/M00 Q1017 R07L/29//95 R07C/29//95 R07R/29//95 R18/29//95 NOSIG
  • 021020Z 36006KT 9999 FEW012 BKN019 02/M00 Q1018 R07L/29//95 R07C/29//95 R07R/29//95 R18/29//95 NOSIG

TAF TAF EDDF
Valid from the 02 at 12:00 until the 03 at 18:00 UTC


021100Z 0212/0318 05005KT 9999 FEW015 BKN025
BECMG 0217/0220 18003KT
BECMG 0220/0223 BKN013
BECMG 0223/0302 OVC008
PROB40
TEMPO 0302/0304 4000 BR
TEMPO 0308/0310 2500 -RASN OVC004
BECMG 0311/0315 18008KT SCT013 BKN025



MET'MAP, your aeronautical weather chart ! - Copyright ORBIFLY December 2007 - Disclaimer

ORBIFLY MET'MAP TEAM :

Programming & Development : Alexandra Zaïnal
Concept & original design : Baudouin d'Aumeries
Assistance for programming : Marc-Olivier Méhu
Technical & hardware support : Manuel Goepfert

Contact : metmap@orbifly.com




SOURCES & CREDITS :

   NOAA